ENMS

Mosjøen , Kjærstad Airport

Norway
METAR ENMS 191120Z VRB02KT 9999 FEW045 M05/M07 Q1019 RMK WIND 412FT VRB02KT
Observed Flight Rules
Dec-19 @ 11:20 UTC (20 minutes ago) Visual Flight Rules
Wind Visibility Clouds
Variable at 2 knots 10,000+ meters
  • Few at 4,500' AGL
Temperatures Readings
Current -5°C / 23°F
Dewpoint -7°C / 19°F
Humidity 86%
Altimeter 30.09" Hg
Pressure 1019 hPa
Elevation 70
METAR ENMS 191120Z VRB02KT 9999 FEW045 M05/M07 Q1019 RMK WIND 412FT VRB02KT
Observed Flight Rules
Dec-19 @ 11:20 UTC
(20 minutes ago)
VFR
Wind Visibility
Variable at 2 knots 10,000+ meters
Clouds
  • Few at 4,500' AGL
Temperature Dewpoint
-5°C / 23°F -7°C / 19°F
Humidity Altimeter Pressure
86% 30.09" Hg 1019 hPa